Cortez, CO

10:24 PM MDT on August 27, 2014 (GMT -0600)
Kelly Place B&B, McElmo Canyon | Change Station
CLOSE
Current Station
Personal Weather Station
Location: Cortez, CO
Elevation: 5522 ft
Nearby Weather Stations
Active Advisory: Special Statement Active Notice: Public Information Statement

Elev 5522 ft 37.34 °N, 108.79 °W | Updated 4 minutes ago

Partly Cloudy
Partly Cloudy
57.0 °F
Feels Like 57.0 °F
N
2.0
Wind Variable Wind from NE
Gusts 4.5 mph

Today
High -- | Low -- °F
--% Chance of Precip.
Yesterday
High -- | Low -- °F
Precip. -- in
6:41 AM 7:50 PM
Waxing Crescent, 6% visible
Pressure 30.17 in
Visibility 10.0 miles
Clouds Clear
Dew Point 48 °F
Humidity 73%
Rainfall 0.31 in
Snow Depth Not available.
UV 0 out of 12
Pollen 5.50 out of 12
Air Quality Not available.
Flu Activity Not available.
METAR KCEZ 280353Z AUTO 12003KT 10SM CLR 11/09 A3031 RMK AO2 SLP216 T01060094 $

More Conditions Fewer Conditions

Pressure 30.17 in
Visibility 10.0 miles
Clouds Clear
Dew Point 48 °F
Humidity 73%
Rainfall 0.31 in
Snow Depth Not available.
UV 0 out of 12
Pollen 5.50 out of 12
Air Quality Not available.
Flu Activity Not available.
METAR KCEZ 280353Z AUTO 12003KT 10SM CLR 11/09 A3031 RMK AO2 SLP216 T01060094 $

More Conditions Fewer Conditions

10-Day Weather Forecast

Almanac

Astronomy

Aug. 27, 2014 Rise Set
Actual Time 6:41 AM MDT 7:50 PM MDT
Civil Twilight 6:14 AM MDT 8:17 PM MDT
Nautical Twilight 5:42 AM MDT 8:49 PM MDT
Astronomical Twilight 5:08 AM MDT 9:23 PM MDT
Moon 8:36 AM MDT (8/27) 8:48 PM MDT (8/27)
Length of Visible Light 14h 03m
Length of Day
13h 09m
Tomorrow will be 2m 16s shorter.
Waxing Crescent, 6% of the Moon is Illuminated
Aug 28
Waxing Crescent
Sep 2
First Quarter
Sep 8
Full
Sep 15
Last Quarter
Sep 24
New

Today's Extremes

State Highs State Lows

Community

WunderPhotos

Upload Photos

1,747,898 photos uploaded!

Nearby

Snow Depth

Station Depth Elevation
Sharkstooth 0 in 10720 ft
Columbus Basin 0 in 10785 ft
Lone Cone 10 in 9600 ft
El Diente Peak 0 in 10200 ft
Cascade 0 in 8880 ft

Earthquake Activity

City Distance Mag. Time & Date
No recent earthquake activity has been reported nearby.
Minimum magnitude displayed is 2.5.

Coastal Water Temperatures

Place Temperature
No Stations Reporting

Nearby Weather Stations